TimeHST,TemperatureF,Dew PointF,Humidity,Sea Level PressureIn,VisibilityMPH,Wind Direction,Wind SpeedMPH,Gust SpeedMPH,PrecipitationIn,Events,Conditions,WindDirDegrees,DateUTC
12:53 AM,69.1,64.0,84,29.99,10.0,South,4.6,-,N/A,,Overcast,190,2013-03-23 10:53:00
1:53 AM,68.0,63.0,84,29.96,10.0,Calm,Calm,-,N/A,,Mostly Cloudy,0,2013-03-23 11:53:00
2:53 AM,68.0,63.0,84,29.96,10.0,Calm,Calm,-,N/A,,Overcast,0,2013-03-23 12:53:00
3:53 AM,66.0,62.1,87,29.95,10.0,Calm,Calm,-,N/A,,Mostly Cloudy,0,2013-03-23 13:53:00
4:53 AM,66.0,61.0,84,29.95,10.0,Calm,Calm,-,N/A,,Overcast,0,2013-03-23 14:53:00
5:53 AM,66.9,61.0,81,29.98,10.0,Calm,Calm,-,N/A,,Overcast,0,2013-03-23 15:53:00
6:53 AM,66.9,61.0,81,30.00,10.0,SSW,5.8,-,N/A,,Mostly Cloudy,200,2013-03-23 16:53:00
7:53 AM,70.0,63.0,78,30.02,10.0,WSW,5.8,-,N/A,,Mostly Cloudy,240,2013-03-23 17:53:00
8:53 AM,75.0,64.0,69,30.02,10.0,SSE,4.6,-,N/A,,Mostly Cloudy,150,2013-03-23 18:53:00
9:53 AM,79.0,63.0,58,30.01,10.0,SE,5.8,-,N/A,,Mostly Cloudy,130,2013-03-23 19:53:00
10:53 AM,79.0,62.1,56,30.01,10.0,ESE,8.1,-,N/A,,Clear,110,2013-03-23 20:53:00
11:53 AM,77.0,64.9,66,30.00,10.0,East,10.4,-,N/A,,Overcast,100,2013-03-23 21:53:00
12:53 PM,79.0,64.0,60,29.99,10.0,ESE,9.2,-,N/A,,Overcast,110,2013-03-23 22:53:00
1:53 PM,80.1,63.0,56,29.96,10.0,East,6.9,-,N/A,,Overcast,80,2013-03-23 23:53:00
2:53 PM,80.1,61.0,52,29.94,10.0,East,9.2,-,N/A,,Mostly Cloudy,100,2013-03-24 00:53:00
3:53 PM,77.0,62.1,60,29.94,10.0,ESE,8.1,-,N/A,,Scattered Clouds,110,2013-03-24 01:53:00
4:53 PM,77.0,63.0,62,29.95,10.0,ESE,5.8,-,N/A,,Partly Cloudy,110,2013-03-24 02:53:00
5:53 PM,73.9,63.0,68,29.96,10.0,ESE,4.6,-,N/A,,Clear,110,2013-03-24 03:53:00
6:53 PM,73.0,64.0,73,29.99,10.0,Calm,Calm,-,N/A,,Clear,0,2013-03-24 04:53:00
7:53 PM,71.1,64.9,81,30.00,10.0,South,3.5,-,N/A,,Clear,180,2013-03-24 05:53:00
8:53 PM,70.0,64.0,81,30.02,10.0,SSW,3.5,-,N/A,,Clear,200,2013-03-24 06:53:00
9:53 PM,69.1,64.0,84,30.03,10.0,WSW,4.6,-,N/A,,Clear,240,2013-03-24 07:53:00
10:53 PM,68.0,63.0,84,30.03,10.0,Calm,Calm,-,N/A,,Clear,0,2013-03-24 08:53:00
11:04 PM,68.0,63.0,84,30.03,10.0,West,4.6,-,N/A,,Partly Cloudy,260,2013-03-24 09:04:00
11:53 PM,68.0,63.0,84,30.01,10.0,WSW,4.6,-,N/A,,Overcast,240,2013-03-24 09:53:00